Time;durP1;ratioP1;P1;durP2;ratioP2;P2;SDS_P1;SDS_P2;PMS_P1;PMS_P2;Temp;Humidity;BMP_temperature;BMP_pressure;BME280_temperature;BME280_humidity;BME280_pressure;Samples;Min_cycle;Max_cycle;Signal;HPM_P1;HPM_P2
2023/05/27 00:00:08;;;;;;;6.65;2.75;;;;;;;17.36;47.75;100220.97;335006;28;5181;-72
2023/05/27 00:00:23;;;;;;;8.52;2.80;;;;;;;17.35;47.89;100228.91;329489;29;17901;-72
2023/05/27 00:00:35;;;;;;;7.07;2.55;;;;;;;17.36;48.17;100226.22;330513;29;17819;-72
2023/05/27 00:00:47;;;;;;;6.47;2.63;;;;;;;17.35;47.97;100228.91;333524;28;4685;-72
2023/05/27 00:00:59;;;;;;;7.07;2.50;;;;;;;17.35;47.39;100227.13;330758;28;18667;-72
2023/05/27 00:01:12;;;;;;;7.57;2.42;;;;;;;17.34;47.64;100222.81;334085;29;5844;-72
2023/05/27 00:01:25;;;;;;;8.68;2.70;;;;;;;17.35;47.60;100228.91;331578;28;17409;-73
2023/05/27 00:01:37;;;;;;;9.45;2.70;;;;;;;17.35;47.29;100228.91;333941;28;4547;-72
2023/05/27 00:01:49;;;;;;;7.72;2.45;;;;;;;17.32;47.35;100226.44;329667;28;4732;-72
2023/05/27 00:02:01;;;;;;;6.70;2.45;;;;;;;17.29;47.81;100229.22;333152;29;4667;-73
2023/05/27 00:02:13;;;;;;;7.40;2.50;;;;;;;17.30;47.87;100225.66;331833;29;4563;-73
2023/05/27 00:02:26;;;;;;;8.30;2.50;;;;;;;17.31;47.87;100227.38;333309;29;18013;-72
2023/05/27 00:02:43;;;;;;;8.45;2.50;;;;;;;17.33;48.16;100230.78;335945;29;4777;-72
2023/05/27 00:02:55;;;;;;;7.82;2.42;;;;;;;17.31;48.04;100227.38;333760;28;18465;-73
2023/05/27 00:03:07;;;;;;;8.32;2.55;;;;;;;17.28;48.90;100230.16;334412;28;4745;-73
2023/05/27 00:03:20;;;;;;;8.10;2.50;;;;;;;17.28;48.56;100227.53;328592;28;18160;-72
2023/05/27 00:03:32;;;;;;;9.68;2.67;;;;;;;17.29;48.26;100223.97;331830;29;5130;-73
2023/05/27 00:03:45;;;;;;;9.02;2.80;;;;;;;17.29;48.27;100235.31;329979;28;18344;-72
2023/05/27 00:03:57;;;;;;;7.72;3.08;;;;;;;17.28;48.65;100232.78;333404;28;5435;-73
2023/05/27 00:04:10;;;;;;;6.88;2.80;;;;;;;17.28;48.35;100232.78;331516;28;18420;-72
2023/05/27 00:04:22;;;;;;;6.80;2.63;;;;;;;17.27;48.40;100233.72;332450;29;5281;-72
2023/05/27 00:04:34;;;;;;;7.38;2.80;;;;;;;17.25;48.06;100232.94;330378;28;18119;-72
2023/05/27 00:04:47;;;;;;;9.68;2.90;;;;;;;17.25;48.25;100235.56;333383;29;5077;-73
2023/05/27 00:04:59;;;;;;;9.00;2.67;;;;;;;17.26;48.42;100229.38;330166;29;18348;-72
2023/05/27 00:05:11;;;;;;;7.88;2.58;;;;;;;17.26;48.23;100229.38;333281;29;4501;-73
2023/05/27 00:05:23;;;;;;;8.40;2.60;;;;;;;17.24;48.98;100226.81;330116;29;5640;-72
2023/05/27 00:05:35;;;;;;;7.68;2.53;;;;;;;17.25;48.79;100228.53;332692;29;5452;-73
2023/05/27 00:05:47;;;;;;;7.20;2.58;;;;;;;17.24;48.46;100225.97;333166;29;4471;-73
2023/05/27 00:06:01;;;;;;;7.75;2.60;;;;;;;17.25;48.39;100228.53;328889;28;18539;-72
2023/05/27 00:06:13;;;;;;;7.40;2.55;;;;;;;17.23;49.12;100232.19;332923;29;4635;-74
2023/05/27 00:06:25;;;;;;;7.30;2.70;;;;;;;17.25;48.50;100227.69;327931;28;19079;-72
2023/05/27 00:06:37;;;;;;;6.57;2.63;;;;;;;17.24;48.45;100241.75;333586;28;5717;-73
2023/05/27 00:06:49;;;;;;;7.32;2.60;;;;;;;17.24;48.37;100234.69;330172;28;10651;-72
2023/05/27 00:07:01;;;;;;;8.63;2.60;;;;;;;17.24;48.31;100231.22;333661;29;4572;-72
2023/05/27 00:07:14;;;;;;;8.52;2.67;;;;;;;17.25;48.19;100232.94;329529;28;11268;-73
2023/05/27 00:07:26;;;;;;;7.22;2.60;;;;;;;17.24;48.55;100234.69;332740;29;4560;-72
2023/05/27 00:07:39;;;;;;;7.70;2.70;;;;;;;17.23;48.93;100232.19;326886;28;4842;-73
2023/05/27 00:07:51;;;;;;;9.13;2.78;;;;;;;17.25;48.60;100228.53;328951;28;5352;-73
2023/05/27 00:08:04;;;;;;;8.98;2.78;;;;;;;17.24;48.38;100231.22;331480;28;16919;-72
2023/05/27 00:08:17;;;;;;;9.48;2.60;;;;;;;17.24;48.60;100226.81;325959;28;18649;-72
2023/05/27 00:08:30;;;;;;;7.20;2.50;;;;;;;17.25;48.27;100233.78;329072;28;17835;-72
2023/05/27 00:08:42;;;;;;;7.20;2.63;;;;;;;17.25;48.55;100232.94;331980;29;4551;-72
2023/05/27 00:08:55;;;;;;;6.22;2.60;;;;;;;17.23;48.88;100229.53;326814;29;19892;-73
2023/05/27 00:09:07;;;;;;;8.05;2.55;;;;;;;17.24;48.75;100225.97;329590;29;18234;-72
2023/05/27 00:09:20;;;;;;;8.48;2.58;;;;;;;17.23;48.42;100229.53;330032;29;17268;-72
2023/05/27 00:09:32;;;;;;;6.43;2.33;;;;;;;17.24;48.38;100236.47;332658;29;4493;-72
2023/05/27 00:09:44;;;;;;;7.15;2.53;;;;;;;17.24;48.55;100231.22;331132;28;4727;-72
2023/05/27 00:09:57;;;;;;;8.75;2.85;;;;;;;17.22;48.34;100227.84;331562;29;4549;-72
2023/05/27 00:10:09;;;;;;;9.18;3.00;;;;;;;17.22;48.46;100231.31;329191;29;16451;-73
2023/05/27 00:10:21;;;;;;;8.70;2.88;;;;;;;17.23;48.22;100237.44;330127;29;4658;-72
2023/05/27 00:10:33;;;;;;;7.95;2.70;;;;;;;17.24;49.03;100236.47;331236;29;4506;-72
2023/05/27 00:10:47;;;;;;;8.52;2.75;;;;;;;17.22;48.85;100233.94;328118;28;17977;-72
2023/05/27 00:10:58;;;;;;;8.25;2.67;;;;;;;17.23;48.81;100232.19;327337;29;5307;-72
2023/05/27 00:11:11;;;;;;;7.47;2.50;;;;;;;17.21;49.20;100227.00;329876;29;4733;-73
2023/05/27 00:11:23;;;;;;;8.02;2.70;;;;;;;17.21;49.01;100231.41;329319;29;5665;-72
2023/05/27 00:11:35;;;;;;;8.23;2.90;;;;;;;17.21;48.88;100228.78;326246;29;18052;-73
2023/05/27 00:11:47;;;;;;;9.02;2.92;;;;;;;17.22;48.74;100230.47;327321;29;5651;-73
2023/05/27 00:12:00;;;;;;;8.63;2.78;;;;;;;17.21;48.85;100231.41;326833;29;11030;-73
2023/05/27 00:12:12;;;;;;;7.03;2.60;;;;;;;17.19;48.75;100238.50;329000;29;4530;-72
2023/05/27 00:12:24;;;;;;;7.35;2.63;;;;;;;17.17;48.77;100230.69;326080;29;9213;-72
2023/05/27 00:12:36;;;;;;;7.95;2.70;;;;;;;17.16;48.78;100235.13;329327;29;4729;-73
2023/05/27 00:12:48;;;;;;;8.10;2.70;;;;;;;17.15;49.59;100238.66;330605;29;4662;-72
2023/05/27 00:13:00;;;;;;;6.22;2.60;;;;;;;17.12;50.06;100233.56;326929;28;17984;-72
2023/05/27 00:13:12;;;;;;;8.27;2.67;;;;;;;17.12;49.81;100230.94;330182;28;4892;-72
2023/05/27 00:13:24;;;;;;;8.77;2.85;;;;;;;17.13;49.12;100232.63;328001;28;18443;-72
2023/05/27 00:13:36;;;;;;;10.43;3.00;;;;;;;17.14;49.17;100231.72;328704;29;4686;-73
2023/05/27 00:13:48;;;;;;;8.45;2.70;;;;;;;17.14;49.11;100234.34;331405;29;4972;-72
2023/05/27 00:14:00;;;;;;;10.18;2.80;;;;;;;17.14;49.03;100221.22;327326;28;19108;-72
2023/05/27 00:14:12;;;;;;;9.80;2.90;;;;;;;17.14;48.87;100228.22;330702;29;5333;-72
2023/05/27 00:14:25;;;;;;;9.13;2.90;;;;;;;17.13;48.58;100227.38;327635;29;4840;-73
2023/05/27 00:14:37;;;;;;;7.70;2.85;;;;;;;17.11;49.11;100226.59;330750;29;4699;-73
2023/05/27 00:14:49;;;;;;;7.03;2.70;;;;;;;17.12;49.20;100227.44;328502;28;17016;-72
2023/05/27 00:15:01;;;;;;;7.88;2.60;;;;;;;17.11;48.92;100226.59;332017;29;5389;-72
2023/05/27 00:15:13;;;;;;;8.90;2.67;;;;;;;17.11;48.96;100231.84;333180;28;4658;-72
2023/05/27 00:15:26;;;;;;;9.55;2.70;;;;;;;17.10;49.67;100230.19;332856;28;17964;-73
2023/05/27 00:15:40;;;;;;;9.85;2.72;;;;;;;17.09;49.47;100231.09;332429;29;4798;-72
2023/05/27 00:15:52;;;;;;;10.32;2.80;;;;;;;17.07;49.68;100227.69;328989;28;18348;-72
2023/05/27 00:16:05;;;;;;;9.68;2.78;;;;;;;17.06;49.93;100233.00;329095;28;18441;-72
2023/05/27 00:16:17;;;;;;;7.65;3.03;;;;;;;17.04;49.53;100225.19;332642;28;4798;-72
2023/05/27 00:16:31;;;;;;;6.20;3.00;;;;;;;17.06;49.50;100227.75;329396;29;17608;-72
2023/05/27 00:16:43;;;;;;;6.78;2.92;;;;;;;17.05;49.67;100237.41;331475;29;5831;-72
2023/05/27 00:16:56;;;;;;;6.95;2.70;;;;;;;17.06;49.86;100233.84;328399;29;17872;-72
2023/05/27 00:17:13;;;;;;;8.77;2.90;;;;;;;17.05;49.82;100229.53;330465;29;4525;-73
2023/05/27 00:17:25;;;;;;;8.05;2.95;;;;;;;17.05;49.50;100231.31;327901;29;17532;-72
2023/05/27 00:17:39;;;;;;;6.90;2.67;;;;;;;17.06;49.59;100233.00;330888;29;4786;-72
2023/05/27 00:17:51;;;;;;;6.57;2.38;;;;;;;17.05;49.62;100232.16;328026;29;17799;-72
2023/05/27 00:18:03;;;;;;;6.15;2.25;;;;;;;17.04;49.72;100230.44;331660;29;5458;-72
2023/05/27 00:18:15;;;;;;;6.95;2.70;;;;;;;17.04;49.57;100232.25;329973;28;18138;-72
2023/05/27 00:18:27;;;;;;;8.90;2.95;;;;;;;17.03;49.45;100228.78;332214;29;5671;-72
2023/05/27 00:18:40;;;;;;;8.55;2.97;;;;;;;17.02;49.26;100232.31;330290;29;18067;-72
2023/05/27 00:18:52;;;;;;;7.35;2.70;;;;;;;17.03;49.56;100231.41;332877;29;5707;-72
2023/05/27 00:19:05;;;;;;;6.07;2.67;;;;;;;17.02;49.29;100231.47;330392;28;18226;-73
2023/05/27 00:19:17;;;;;;;6.53;2.53;;;;;;;17.03;49.26;100238.44;332384;29;4543;-72
2023/05/27 00:19:30;;;;;;;8.40;2.63;;;;;;;17.01;49.10;100230.63;330963;29;5514;-72
2023/05/27 00:19:47;;;;;;;11.15;2.92;;;;;;;16.99;50.01;100232.47;331468;29;6671;-73
2023/05/27 00:20:06;;;;;;;9.98;2.83;;;;;;;17.01;49.66;100233.25;329282;29;17650;-72
2023/05/27 00:20:19;;;;;;;8.40;2.83;;;;;;;17.00;49.59;100228.91;329714;29;17896;-72
2023/05/27 00:20:32;;;;;;;8.15;2.95;;;;;;;16.99;49.14;100231.63;328855;29;17974;-72
2023/05/27 00:20:44;;;;;;;8.40;2.97;;;;;;;16.94;49.40;100235.34;329096;29;10826;-72
2023/05/27 00:20:56;;;;;;;8.75;2.83;;;;;;;16.92;49.52;100231.94;330761;29;4593;-72
2023/05/27 00:21:08;;;;;;;8.13;2.90;;;;;;;16.92;49.51;100234.56;330937;29;4837;-72
2023/05/27 00:21:20;;;;;;;7.03;2.60;;;;;;;16.89;49.60;100229.44;329307;28;18233;-72
2023/05/27 00:21:32;;;;;;;7.18;2.65;;;;;;;16.90;49.71;100232.91;332039;29;5389;-72
2023/05/27 00:21:44;;;;;;;7.53;2.70;;;;;;;16.91;49.57;100235.47;329327;28;10326;-72
2023/05/27 00:21:56;;;;;;;7.47;2.75;;;;;;;16.90;49.37;100228.53;330427;28;18036;-72
2023/05/27 00:22:09;;;;;;;6.95;2.70;;;;;;;16.91;49.19;100235.47;330126;29;10008;-72
2023/05/27 00:22:21;;;;;;;7.65;2.95;;;;;;;16.91;49.12;100234.63;332356;29;19651;-72
2023/05/27 00:22:34;;;;;;;6.85;2.75;;;;;;;16.93;49.58;100232.78;333133;28;4500;-72
2023/05/27 00:22:47;;;;;;;6.65;2.60;;;;;;;16.93;49.82;100233.63;329874;29;18289;-72
2023/05/27 00:23:00;;;;;;;7.15;2.55;;;;;;;16.93;49.60;100232.78;330786;28;10632;-72
2023/05/27 00:23:12;;;;;;;7.90;2.78;;;;;;;16.92;49.28;100231.06;333036;29;5176;-72
2023/05/27 00:23:24;;;;;;;7.15;2.60;;;;;;;16.92;49.42;100236.31;331434;29;16648;-72
2023/05/27 00:23:36;;;;;;;6.57;2.60;;;;;;;16.89;50.11;100234.69;334060;28;4621;-72
2023/05/27 00:23:51;;;;;;;6.57;2.70;;;;;;;16.91;49.90;100229.38;334646;29;4482;-72
2023/05/27 00:24:04;;;;;;;6.60;2.50;;;;;;;16.91;49.57;100234.63;331737;29;17495;-72
2023/05/27 00:24:16;;;;;;;9.15;2.60;;;;;;;16.91;49.76;100232.84;332074;28;17940;-72
2023/05/27 00:24:28;;;;;;;9.65;2.70;;;;;;;16.91;49.64;100234.63;334438;28;4550;-72
2023/05/27 00:24:41;;;;;;;8.38;2.50;;;;;;;16.95;49.96;100233.56;331734;29;19031;-72
2023/05/27 00:24:53;;;;;;;7.35;2.45;;;;;;;16.94;49.54;100235.34;335478;29;5303;-72
2023/05/27 00:25:05;;;;;;;8.43;2.60;;;;;;;16.91;49.54;100232.00;332219;28;18711;-72
2023/05/27 00:25:20;;;;;;;7.40;2.70;;;;;;;16.89;49.86;100236.50;334344;28;4661;-72
2023/05/27 00:25:32;;;;;;;5.93;2.65;;;;;;;16.88;49.75;100229.53;330581;28;17599;-72
2023/05/27 00:25:44;;;;;;;5.82;2.78;;;;;;;16.87;49.86;100227.84;330363;28;16215;-72
2023/05/27 00:25:56;;;;;;;6.88;2.90;;;;;;;16.89;49.88;100236.50;333712;28;5306;-72
2023/05/27 00:26:09;;;;;;;8.02;2.90;;;;;;;16.87;49.91;100235.72;331844;28;4530;-72
2023/05/27 00:26:21;;;;;;;10.38;3.17;;;;;;;16.85;49.40;100229.69;328717;28;18139;-72
2023/05/27 00:26:34;;;;;;;9.70;3.10;;;;;;;16.82;49.71;100229.81;334280;28;4504;-72
2023/05/27 00:26:46;;;;;;;7.97;3.03;;;;;;;16.82;49.90;100235.94;329694;28;18571;-72
2023/05/27 00:26:58;;;;;;;7.47;2.92;;;;;;;16.82;49.83;100235.06;330570;29;5437;-72
2023/05/27 00:27:13;;;;;;;8.35;2.95;;;;;;;16.80;49.86;100232.50;330032;29;17989;-72
2023/05/27 00:27:25;;;;;;;7.72;3.00;;;;;;;16.82;49.82;100235.06;330167;29;18027;-72
2023/05/27 00:27:37;;;;;;;7.45;2.88;;;;;;;16.80;49.85;100231.66;333225;29;4691;-72
2023/05/27 00:27:49;;;;;;;7.10;2.70;;;;;;;16.78;50.01;100232.59;329329;29;8834;-72
2023/05/27 00:28:01;;;;;;;7.13;2.70;;;;;;;16.78;49.39;100232.59;332956;29;5421;-72
2023/05/27 00:28:13;;;;;;;8.18;2.97;;;;;;;16.77;49.61;100230.88;333516;28;4685;-72
2023/05/27 00:28:28;;;;;;;9.07;3.08;;;;;;;16.78;49.54;100234.34;330260;29;19777;-72
2023/05/27 00:28:40;;;;;;;9.00;3.08;;;;;;;16.77;50.13;100227.41;330433;29;17755;-72
2023/05/27 00:28:53;;;;;;;8.05;2.83;;;;;;;16.78;50.15;100234.34;331662;29;5821;-72
2023/05/27 00:29:05;;;;;;;7.07;2.60;;;;;;;16.77;50.29;100232.66;330175;29;17974;-72
2023/05/27 00:29:17;;;;;;;8.45;2.60;;;;;;;16.78;50.12;100239.59;333163;29;4731;-72
2023/05/27 00:29:29;;;;;;;9.00;2.80;;;;;;;16.80;50.29;100231.66;329837;29;8628;-72
2023/05/27 00:29:41;;;;;;;9.30;2.88;;;;;;;16.77;51.01;100230.88;332517;28;17167;-72
2023/05/27 00:29:53;;;;;;;8.93;2.72;;;;;;;16.78;50.95;100229.97;332068;29;5331;-72
2023/05/27 00:30:06;;;;;;;9.32;2.83;;;;;;;16.78;50.40;100232.59;333021;28;18168;-72
2023/05/27 00:30:18;;;;;;;9.10;3.10;;;;;;;16.80;50.22;100236.91;331103;28;5946;-72
2023/05/27 00:30:30;;;;;;;10.30;3.15;;;;;;;16.79;50.99;100236.06;328217;29;18885;-72
2023/05/27 00:30:42;;;;;;;7.75;2.78;;;;;;;16.76;51.15;100234.44;333144;28;5470;-72
2023/05/27 00:30:54;;;;;;;7.03;2.60;;;;;;;16.75;51.21;100230.09;325783;29;9601;-72
2023/05/27 00:31:06;;;;;;;6.72;2.60;;;;;;;16.74;50.86;100233.66;329710;29;5550;-72
2023/05/27 00:31:18;;;;;;;6.90;2.72;;;;;;;16.77;50.51;100230.03;330823;28;5372;-71
2023/05/27 00:31:30;;;;;;;7.97;2.80;;;;;;;16.81;50.74;100238.59;327383;29;17924;-72
2023/05/27 00:31:43;;;;;;;7.55;2.83;;;;;;;16.77;50.69;100233.50;328573;29;5379;-72
2023/05/27 00:31:55;;;;;;;6.50;2.63;;;;;;;16.77;50.45;100236.13;325512;29;18267;-72
2023/05/27 00:32:07;;;;;;;8.68;2.67;;;;;;;16.77;50.60;100238.75;328569;29;4708;-72
2023/05/27 00:32:19;;;;;;;9.65;2.75;;;;;;;16.75;50.60;100235.34;329045;29;9416;-72
2023/05/27 00:32:31;;;;;;;8.25;2.80;;;;;;;16.74;50.56;100233.66;330973;28;17028;-72
2023/05/27 00:32:43;;;;;;;6.38;2.55;;;;;;;16.74;50.96;100238.91;332006;28;4724;-72
2023/05/27 00:32:55;;;;;;;8.05;2.60;;;;;;;16.76;50.79;100237.06;331390;28;17898;-72
2023/05/27 00:33:07;;;;;;;9.30;2.50;;;;;;;16.76;51.24;100234.44;333466;28;5483;-72
2023/05/27 00:33:21;;;;;;;8.95;2.83;;;;;;;16.76;50.87;100236.19;327978;29;17405;-72
2023/05/27 00:33:33;;;;;;;7.47;2.88;;;;;;;16.75;50.55;100234.50;330232;29;4887;-72
2023/05/27 00:33:45;;;;;;;9.23;2.60;;;;;;;16.73;50.26;100231.94;328109;29;18150;-72
2023/05/27 00:33:57;;;;;;;10.13;2.50;;;;;;;16.75;50.33;100239.75;332342;28;4486;-72
2023/05/27 00:34:09;;;;;;;8.57;2.70;;;;;;;16.73;50.60;100231.94;334114;28;5991;-72
2023/05/27 00:34:21;;;;;;;9.20;2.88;;;;;;;16.73;51.09;100236.34;331723;29;17959;-72
2023/05/27 00:34:34;;;;;;;9.93;2.83;;;;;;;16.74;50.25;100236.28;333504;28;4542;-72
2023/05/27 00:34:46;;;;;;;9.38;2.72;;;;;;;16.73;50.20;100234.56;331289;28;18092;-72
2023/05/27 00:34:58;;;;;;;8.00;2.75;;;;;;;16.73;49.87;100237.19;340980;28;4641;-72
2023/05/27 00:35:10;;;;;;;8.77;2.80;;;;;;;16.72;49.85;100235.50;338347;28;18293;-72
2023/05/27 00:35:22;;;;;;;10.00;3.05;;;;;;;16.74;50.11;100238.91;337875;28;4733;-72
2023/05/27 00:35:34;;;;;;;10.50;2.92;;;;;;;16.75;50.01;100232.72;331470;28;10976;-72
2023/05/27 00:35:46;;;;;;;9.98;2.85;;;;;;;16.71;50.67;100233.78;334702;29;5400;-72
2023/05/27 00:35:58;;;;;;;8.73;2.58;;;;;;;16.74;50.25;100236.28;334157;28;4554;-72
2023/05/27 00:36:10;;;;;;;7.47;2.60;;;;;;;16.73;50.28;100239.81;331958;28;18096;-72
2023/05/27 00:36:22;;;;;;;7.50;2.95;;;;;;;16.71;50.20;100233.78;332622;29;4472;-72
2023/05/27 00:36:35;;;;;;;6.70;2.90;;;;;;;16.71;49.85;100233.78;329292;29;10767;-72
2023/05/27 00:36:47;;;;;;;6.72;2.70;;;;;;;16.67;49.58;100237.50;332003;29;4533;-72
2023/05/27 00:36:59;;;;;;;8.82;2.92;;;;;;;16.67;49.77;100234.03;331447;29;5580;-72
2023/05/27 00:37:11;;;;;;;9.38;3.05;;;;;;;16.66;50.03;100235.81;331908;28;17902;-72
2023/05/27 00:37:23;;;;;;;9.00;2.90;;;;;;;16.66;50.12;100230.56;334463;28;4650;-72
2023/05/27 00:37:35;;;;;;;6.55;2.53;;;;;;;16.66;49.95;100235.81;331031;28;17955;-72
2023/05/27 00:37:47;;;;;;;5.95;2.40;;;;;;;16.67;50.05;100234.88;333042;29;4659;-72
2023/05/27 00:37:59;;;;;;;5.72;2.25;;;;;;;16.68;50.26;100239.22;332064;29;4774;-72
2023/05/27 00:38:11;;;;;;;6.63;2.30;;;;;;;16.70;50.45;100234.75;330736;28;18293;-72
2023/05/27 00:38:23;;;;;;;5.43;2.33;;;;;;;16.71;50.22;100239.03;333402;28;5469;-72
2023/05/27 00:38:36;;;;;;;6.47;2.25;;;;;;;16.69;50.32;100238.28;330918;28;18189;-72
2023/05/27 00:38:48;;;;;;;7.45;2.38;;;;;;;16.70;50.25;100233.88;334365;29;4630;-72
2023/05/27 00:39:01;;;;;;;9.13;2.80;;;;;;;16.68;49.98;100233.97;330118;28;18650;-72
2023/05/27 00:39:13;;;;;;;8.35;2.78;;;;;;;16.66;50.75;100230.56;331344;28;5208;-72
2023/05/27 00:39:25;;;;;;;6.95;2.60;;;;;;;16.67;50.83;100232.25;329013;28;5157;-72
2023/05/27 00:39:37;;;;;;;7.90;2.90;;;;;;;16.67;50.67;100234.88;331507;28;4484;-72
2023/05/27 00:39:49;;;;;;;7.45;3.00;;;;;;;16.65;50.77;100239.34;328935;28;10481;-72
2023/05/27 00:40:02;;;;;;;7.20;3.17;;;;;;;16.61;51.08;100240.41;331672;28;4812;-72
2023/05/27 00:40:19;;;;;;;6.15;2.88;;;;;;;16.62;50.79;100236.88;329068;28;7861;-72
2023/05/27 00:40:34;;;;;;;9.20;2.97;;;;;;;16.61;50.57;100235.16;328779;29;17748;-72
2023/05/27 00:40:49;;;;;;;10.43;3.00;;;;;;;16.58;51.10;100232.72;327965;29;17858;-72
2023/05/27 00:41:03;;;;;;;9.57;3.40;;;;;;;16.62;50.20;100229.00;329072;28;17909;-72
2023/05/27 00:41:15;;;;;;;7.68;3.03;;;;;;;16.62;50.08;100233.38;328869;29;17807;-72
2023/05/27 00:41:28;;;;;;;6.30;2.78;;;;;;;16.60;50.07;100230.00;330285;29;4631;-72
2023/05/27 00:41:47;;;;;;;7.00;2.80;;;;;;;16.57;50.57;100236.25;329254;29;18304;-72
2023/05/27 00:42:00;;;;;;;7.72;2.80;;;;;;;16.55;49.88;100232.84;333054;28;17062;-72
2023/05/27 00:42:13;;;;;;;6.68;2.80;;;;;;;16.55;50.22;100235.47;329782;28;16237;-72
2023/05/27 00:42:25;;;;;;;7.20;2.85;;;;;;;16.53;50.19;100226.81;328070;28;16364;-72
2023/05/27 00:42:37;;;;;;;6.90;2.78;;;;;;;16.45;49.55;100231.59;330122;29;5037;-72
2023/05/27 00:42:49;;;;;;;6.00;2.65;;;;;;;16.46;49.92;100233.28;332082;28;4692;-72
2023/05/27 00:43:01;;;;;;;6.90;2.90;;;;;;;16.43;49.55;100233.44;328627;28;18322;-72
2023/05/27 00:43:13;;;;;;;8.07;2.80;;;;;;;16.46;49.94;100231.53;331894;28;4815;-72
2023/05/27 00:43:25;;;;;;;8.18;2.58;;;;;;;16.48;49.87;100232.28;329022;28;17865;-72
2023/05/27 00:43:38;;;;;;;6.57;2.50;;;;;;;16.48;49.72;100231.41;331149;29;5487;-72
2023/05/27 00:43:50;;;;;;;8.30;2.58;;;;;;;16.49;49.91;100233.13;328052;28;16318;-72
2023/05/27 00:44:03;;;;;;;9.90;2.90;;;;;;;16.51;50.36;100236.53;331357;28;4656;-72
2023/05/27 00:44:15;;;;;;;8.23;2.65;;;;;;;16.53;49.99;100232.06;327382;29;17679;-72
2023/05/27 00:44:28;;;;;;;8.40;2.50;;;;;;;16.41;49.94;100230.03;329551;29;4772;-72
2023/05/27 00:44:40;;;;;;;8.07;2.45;;;;;;;16.38;50.95;100237.13;328955;29;4802;-72
2023/05/27 00:44:52;;;;;;;8.73;2.72;;;;;;;16.41;50.71;100230.88;331526;29;4694;-72
2023/05/27 00:45:05;;;;;;;7.38;2.80;;;;;;;16.43;50.25;100233.44;331798;29;4518;-72
2023/05/27 00:45:17;;;;;;;7.35;2.80;;;;;;;16.45;50.47;100239.47;330883;28;17985;-72
2023/05/27 00:45:30;;;;;;;7.80;2.70;;;;;;;16.46;50.63;100234.16;331682;29;5167;-72
2023/05/27 00:45:42;;;;;;;8.23;2.55;;;;;;;16.47;50.88;100235.00;329496;28;18357;-72
2023/05/27 00:45:54;;;;;;;7.90;2.70;;;;;;;16.47;50.61;100229.75;333917;28;4589;-72
2023/05/27 00:46:09;;;;;;;8.10;2.90;;;;;;;16.47;50.37;100229.75;329993;28;18013;-72
2023/05/27 00:46:21;;;;;;;8.35;2.70;;;;;;;16.48;50.84;100232.28;329379;29;18076;-72
2023/05/27 00:46:33;;;;;;;8.77;2.80;;;;;;;16.46;50.27;100231.53;332490;29;5440;-72
2023/05/27 00:46:48;;;;;;;7.40;2.78;;;;;;;16.47;50.89;100229.75;328503;28;18134;-72
2023/05/27 00:47:03;;;;;;;9.35;2.90;;;;;;;16.46;49.89;100228.91;329892;28;17554;-72
2023/05/27 00:47:16;;;;;;;9.48;2.95;;;;;;;16.44;50.10;100240.38;330558;28;16115;-72
2023/05/27 00:47:30;;;;;;;8.15;2.70;;;;;;;16.43;50.22;100231.66;332107;29;5303;-72
2023/05/27 00:47:43;;;;;;;8.77;2.88;;;;;;;16.42;50.20;100234.34;327884;29;18188;-72
2023/05/27 00:47:55;;;;;;;10.45;3.00;;;;;;;16.41;51.00;100236.13;328282;29;17807;-72
2023/05/27 00:48:07;;;;;;;10.63;2.88;;;;;;;16.42;50.09;100234.34;330894;29;4540;-72
2023/05/27 00:48:20;;;;;;;9.10;2.58;;;;;;;16.44;50.47;100240.38;329207;29;9354;-72
2023/05/27 00:48:32;;;;;;;7.78;2.60;;;;;;;16.45;50.54;100228.97;331959;29;5012;-72
2023/05/27 00:48:45;;;;;;;6.32;2.78;;;;;;;16.46;50.47;100233.28;331775;29;4497;-72
2023/05/27 00:48:57;;;;;;;7.57;2.88;;;;;;;16.45;50.34;100229.81;328705;28;17627;-72
2023/05/27 00:49:09;;;;;;;8.70;2.75;;;;;;;16.46;50.26;100233.28;331899;29;5219;-72
2023/05/27 00:49:21;;;;;;;7.63;2.45;;;;;;;16.44;50.00;100229.88;329092;29;18225;-72
2023/05/27 00:49:34;;;;;;;7.82;2.53;;;;;;;16.47;50.40;100229.75;332352;28;4512;-72
2023/05/27 00:49:48;;;;;;;7.35;2.55;;;;;;;16.46;50.05;100228.03;329218;28;17810;-72
2023/05/27 00:50:03;;;;;;;6.95;2.60;;;;;;;16.46;50.11;100228.03;330735;28;17894;-72
2023/05/27 00:50:17;;;;;;;7.13;2.63;;;;;;;16.47;50.66;100229.75;328894;28;9166;-72
2023/05/27 00:50:30;;;;;;;8.20;2.83;;;;;;;16.46;50.54;100228.03;331983;29;5545;-72
2023/05/27 00:50:42;;;;;;;8.25;2.97;;;;;;;16.46;50.91;100238.53;331261;28;18405;-72
2023/05/27 00:50:54;;;;;;;7.60;2.88;;;;;;;16.47;50.69;100230.59;333230;28;4740;-72
2023/05/27 00:51:06;;;;;;;8.38;2.78;;;;;;;16.47;49.95;100233.19;330240;28;18130;-72
2023/05/27 00:51:18;;;;;;;9.02;2.90;;;;;;;16.46;51.13;100235.91;333223;28;5490;-72
2023/05/27 00:51:31;;;;;;;9.10;2.72;;;;;;;16.50;51.14;100235.69;330566;28;17766;-72
2023/05/27 00:51:43;;;;;;;8.52;2.63;;;;;;;16.50;50.96;100229.56;330238;29;4713;-72
2023/05/27 00:51:56;;;;;;;7.93;2.60;;;;;;;16.50;50.86;100225.19;327778;28;16322;-72
2023/05/27 00:52:09;;;;;;;6.50;2.60;;;;;;;16.52;50.86;100227.72;330476;28;4650;-72
2023/05/27 00:52:21;;;;;;;8.27;2.75;;;;;;;16.50;50.68;100230.44;327810;28;18107;-72
2023/05/27 00:52:33;;;;;;;9.27;2.70;;;;;;;16.53;50.56;100229.44;332147;28;5469;-72
2023/05/27 00:52:45;;;;;;;10.18;2.60;;;;;;;16.54;50.87;100223.25;330211;28;17851;-72
2023/05/27 00:52:58;;;;;;;10.82;2.72;;;;;;;16.51;50.39;100226.03;331736;29;4519;-72
2023/05/27 00:53:10;;;;;;;11.73;2.85;;;;;;;16.51;50.53;100231.28;330193;28;9506;-72
2023/05/27 00:53:23;;;;;;;7.68;2.63;;;;;;;16.48;50.46;100227.06;331526;29;4468;-72
2023/05/27 00:53:44;;;;;;;6.95;2.60;;;;;;;16.40;49.51;100233.56;328697;29;18011;-72
2023/05/27 00:53:56;;;;;;;9.98;2.78;;;;;;;16.46;50.27;100228.91;328032;29;16714;-72
2023/05/27 00:54:10;;;;;;;10.18;2.90;;;;;;;16.47;50.10;100224.50;331433;29;4522;-72
2023/05/27 00:54:22;;;;;;;9.18;2.88;;;;;;;16.47;50.58;100230.59;327857;29;19099;-72
2023/05/27 00:54:35;;;;;;;8.82;2.72;;;;;;;16.47;50.70;100227.97;330848;29;9123;-72
2023/05/27 00:54:47;;;;;;;8.52;3.00;;;;;;;16.46;50.09;100223.66;327490;29;19162;-72
2023/05/27 00:55:00;;;;;;;9.52;2.97;;;;;;;16.45;50.21;100221.09;330475;28;10198;-72
2023/05/27 00:55:12;;;;;;;9.07;2.75;;;;;;;16.46;50.04;100223.66;328213;29;18113;-72
2023/05/27 00:55:25;;;;;;;8.13;2.70;;;;;;;16.48;50.03;100228.78;331740;28;5210;-72
2023/05/27 00:55:37;;;;;;;7.28;2.60;;;;;;;16.47;50.75;100229.75;329861;28;19092;-72
2023/05/27 00:55:53;;;;;;;6.10;2.47;;;;;;;16.47;50.69;100220.09;332520;29;4663;-72
2023/05/27 00:56:06;;;;;;;6.38;2.47;;;;;;;16.47;50.35;100224.50;336293;28;18014;-72
2023/05/27 00:56:17;;;;;;;7.15;2.50;;;;;;;16.49;50.30;100227.88;339497;28;4524;-72
2023/05/27 00:56:30;;;;;;;7.10;2.55;;;;;;;16.48;49.84;100226.19;338956;28;4536;-72
2023/05/27 00:56:42;;;;;;;7.20;2.78;;;;;;;16.48;49.80;100226.19;332671;28;17542;-72
2023/05/27 00:56:54;;;;;;;9.07;3.10;;;;;;;16.49;50.02;100223.47;333229;28;5233;-72
2023/05/27 00:57:06;;;;;;;8.63;2.83;;;;;;;16.49;49.69;100233.13;329208;28;18303;-72
2023/05/27 00:57:19;;;;;;;11.35;2.90;;;;;;;16.46;49.50;100222.78;331683;29;5195;-72
2023/05/27 00:57:31;;;;;;;11.70;2.85;;;;;;;16.46;50.08;100222.78;329449;28;19243;-72
2023/05/27 00:57:43;;;;;;;8.95;2.83;;;;;;;16.46;50.28;100223.66;331767;29;5538;-72
2023/05/27 00:57:55;;;;;;;6.90;2.80;;;;;;;16.46;50.25;100225.41;329576;28;17865;-72
2023/05/27 00:58:09;;;;;;;5.97;2.60;;;;;;;16.50;49.87;100224.31;333730;28;4676;-72
2023/05/27 00:58:23;;;;;;;6.13;2.50;;;;;;;16.49;49.61;100228.72;330852;29;8482;-72
2023/05/27 00:58:36;;;;;;;7.57;2.70;;;;;;;16.49;49.85;100225.25;330949;28;10077;-72
2023/05/27 00:58:48;;;;;;;8.23;2.92;;;;;;;16.48;50.18;100226.19;334201;28;4606;-72
2023/05/27 00:59:00;;;;;;;8.60;2.90;;;;;;;16.49;50.25;100226.09;331286;28;19228;-72
2023/05/27 00:59:13;;;;;;;8.52;2.90;;;;;;;16.49;50.47;100225.25;340722;28;4522;-72
2023/05/27 00:59:25;;;;;;;8.13;2.90;;;;;;;16.49;50.11;100227.88;338265;28;10033;-72
2023/05/27 00:59:37;;;;;;;8.85;2.70;;;;;;;16.47;50.14;100225.34;338425;28;16578;-72